createdAt,value
2023-01-13T00:00:38.286Z,99941.00
2023-01-13T00:03:06.461Z,99946.69
2023-01-13T00:05:34.620Z,99955.41
2023-01-13T00:08:04.878Z,99957.06
2023-01-13T00:10:35.289Z,99954.56
2023-01-13T00:13:06.149Z,99944.84
2023-01-13T00:15:34.743Z,99962.25
2023-01-13T00:18:02.749Z,99963.09
2023-01-13T00:20:30.752Z,99966.16
2023-01-13T00:23:00.137Z,99971.34
2023-01-13T00:25:28.324Z,99962.91
2023-01-13T00:27:57.720Z,99949.47
2023-01-13T00:30:25.698Z,99956.88
2023-01-13T00:32:54.170Z,99963.47
2023-01-13T00:35:22.350Z,99952.25
2023-01-13T00:37:50.385Z,99953.91
2023-01-13T00:40:18.860Z,99963.47
2023-01-13T00:43:04.339Z,99952.91
2023-01-13T00:45:34.135Z,99956.28
2023-01-13T00:48:01.900Z,99954.25
2023-01-13T00:50:30.245Z,99953.06
2023-01-13T00:53:01.440Z,99943.50
2023-01-13T00:55:33.180Z,99946.13
2023-01-13T00:58:03.657Z,99944.19
2023-01-13T01:00:34.188Z,99946.00
2023-01-13T01:03:02.291Z,99945.84
2023-01-13T01:05:30.491Z,99952.91
2023-01-13T01:07:58.609Z,99948.81
2023-01-13T01:10:27.136Z,99947.53
2023-01-13T01:12:55.215Z,99948.16
2023-01-13T01:15:23.350Z,99953.38
2023-01-13T01:17:52.703Z,99954.84
2023-01-13T01:20:20.856Z,99951.00
2023-01-13T01:22:48.929Z,99950.31
2023-01-13T01:25:17.090Z,99959.88
2023-01-13T01:27:45.029Z,99950.16
2023-01-13T01:30:14.831Z,99952.47
2023-01-13T01:32:42.865Z,99954.16
2023-01-13T01:35:12.383Z,99954.50
2023-01-13T01:37:40.446Z,99944.09
2023-01-13T01:40:11.702Z,99946.25
2023-01-13T01:42:57.311Z,99949.97
2023-01-13T01:45:30.590Z,99949.13
2023-01-13T01:48:05.537Z,99947.47
2023-01-13T01:50:36.025Z,99948.44
2023-01-13T01:53:12.186Z,99949.97
2023-01-13T01:55:41.258Z,99933.84
2023-01-13T01:58:16.070Z,99942.75
2023-01-13T02:00:44.248Z,99939.03
2023-01-13T02:03:12.762Z,99939.69
2023-01-13T02:05:42.452Z,99930.59
2023-01-13T02:08:13.323Z,99933.28
2023-01-13T02:10:44.460Z,99934.78
2023-01-13T02:13:14.051Z,99927.38
2023-01-13T02:15:56.000Z,99931.44
2023-01-13T02:18:45.650Z,99918.19
2023-01-13T02:22:08.565Z,99920.88
2023-01-13T02:25:24.841Z,99918.56
2023-01-13T02:28:21.576Z,99916.81
2023-01-13T02:31:15.291Z,99923.94
2023-01-13T02:34:01.963Z,99915.75
2023-01-13T02:36:40.736Z,99916.19
2023-01-13T02:39:20.160Z,99911.66
2023-01-13T02:42:15.405Z,99910.81
2023-01-13T02:44:49.689Z,99917.41
2023-01-13T02:47:23.881Z,99910.81
2023-01-13T02:49:59.457Z,99911.84
2023-01-13T02:52:34.342Z,99905.09
2023-01-13T02:55:10.025Z,99897.84
2023-01-13T02:57:40.747Z,99902.59
2023-01-13T03:00:14.566Z,99904.25
2023-01-13T03:02:43.972Z,99899.38
2023-01-13T03:05:17.411Z,99899.44
2023-01-13T03:08:33.971Z,99888.31
2023-01-13T03:11:08.514Z,99872.38
2023-01-13T03:14:07.761Z,99886.00
2023-01-13T03:17:16.778Z,99892.47
2023-01-13T03:20:03.044Z,99891.31
2023-01-13T03:22:39.017Z,99880.72
2023-01-13T03:25:16.872Z,99882.56
2023-01-13T03:27:54.573Z,99888.91
2023-01-13T03:30:30.860Z,99889.56
2023-01-13T03:33:06.348Z,99892.25
2023-01-13T03:35:43.320Z,99887.34
2023-01-13T03:38:17.051Z,99880.09
2023-01-13T03:40:51.779Z,99882.06
2023-01-13T03:43:45.209Z,99878.91
2023-01-13T03:46:21.720Z,99880.75
2023-01-13T03:48:58.840Z,99870.66
2023-01-13T03:51:34.901Z,99877.88
2023-01-13T03:54:09.214Z,99875.66
2023-01-13T03:56:43.849Z,99886.22
2023-01-13T03:59:18.469Z,99881.69
2023-01-13T04:01:58.350Z,99875.31
2023-01-13T04:04:35.514Z,99867.06
2023-01-13T04:07:21.642Z,99876.78
2023-01-13T04:09:57.187Z,99876.31
2023-01-13T04:12:51.081Z,99876.88
2023-01-13T04:15:22.819Z,99881.31
2023-01-13T04:17:51.952Z,99871.31
2023-01-13T04:20:20.094Z,99875.56
2023-01-13T04:22:49.448Z,99879.28
2023-01-13T04:25:17.649Z,99888.44
2023-01-13T04:27:45.704Z,99884.72
2023-01-13T04:30:14.416Z,99883.59
2023-01-13T04:32:42.490Z,99882.47
2023-01-13T04:35:10.906Z,99892.75
2023-01-13T04:37:38.841Z,99888.41
2023-01-13T04:40:10.442Z,99879.19
2023-01-13T04:42:38.436Z,99882.44
2023-01-13T04:45:07.665Z,99881.88
2023-01-13T04:47:35.514Z,99883.72
2023-01-13T04:50:03.474Z,99883.44
2023-01-13T04:52:31.542Z,99880.38
2023-01-13T04:54:59.503Z,99889.09
2023-01-13T04:57:28.863Z,99890.91
2023-01-13T04:59:56.804Z,99903.59
2023-01-13T05:02:24.715Z,99894.69
2023-01-13T05:04:52.716Z,99902.13
2023-01-13T05:07:20.760Z,99912.81
2023-01-13T05:09:48.713Z,99910.31
2023-01-13T05:12:34.152Z,99919.66
2023-01-13T05:15:21.325Z,99915.91
2023-01-13T05:17:49.822Z,99916.56
2023-01-13T05:20:18.789Z,99928.38
2023-01-13T05:23:04.074Z,99935.16
2023-01-13T05:25:32.166Z,99949.94
2023-01-13T05:28:01.155Z,99942.00
2023-01-13T05:30:33.042Z,99940.59
2023-01-13T05:33:01.053Z,99942.50
2023-01-13T05:35:31.941Z,99949.03
2023-01-13T05:37:59.948Z,99949.38
2023-01-13T05:40:45.502Z,99959.66
2023-01-13T05:43:22.433Z,99950.44
2023-01-13T05:45:56.915Z,99955.84
2023-01-13T05:48:27.698Z,99961.75
2023-01-13T05:50:56.105Z,99968.66
2023-01-13T05:53:27.300Z,99973.50
2023-01-13T05:55:55.521Z,99979.22
2023-01-13T05:58:26.356Z,99976.69
2023-01-13T06:01:02.120Z,99978.53
2023-01-13T06:03:30.083Z,99977.19
2023-01-13T06:06:01.558Z,99969.81
2023-01-13T06:08:30.639Z,99963.78
2023-01-13T06:10:58.898Z,99955.72
2023-01-13T06:13:27.685Z,99959.41
2023-01-13T06:15:59.647Z,99957.94
2023-01-13T06:18:28.677Z,99956.38
2023-01-13T06:20:56.817Z,99965.97
2023-01-13T06:23:25.281Z,99955.88
2023-01-13T06:26:03.926Z,99948.31
2023-01-13T06:28:33.173Z,99944.66
2023-01-13T06:31:08.477Z,99944.97
2023-01-13T06:33:40.775Z,99951.53
2023-01-13T06:36:17.388Z,99969.13
2023-01-13T06:38:51.037Z,99965.63
2023-01-13T06:41:40.823Z,99968.63
2023-01-13T06:44:07.789Z,99954.72
2023-01-13T06:46:37.342Z,99950.69
2023-01-13T06:49:08.062Z,99937.91
2023-01-13T06:51:36.165Z,99917.47
2023-01-13T06:54:04.290Z,99923.66
2023-01-13T06:56:32.301Z,99918.63
2023-01-13T06:59:00.234Z,99942.78
2023-01-13T07:01:28.279Z,99945.47
2023-01-13T07:03:58.134Z,99941.94
2023-01-13T07:06:26.109Z,99948.97
2023-01-13T07:08:54.072Z,99959.00
2023-01-13T07:11:22.055Z,99952.81
2023-01-13T07:14:07.502Z,99949.13
2023-01-13T07:16:35.617Z,99923.94
2023-01-13T07:19:06.116Z,99909.06
2023-01-13T07:21:36.433Z,99928.75
2023-01-13T07:24:07.225Z,99924.75
2023-01-13T07:26:35.201Z,99925.91
2023-01-13T07:29:03.248Z,99937.13
2023-01-13T07:31:31.283Z,99955.56
2023-01-13T07:33:59.911Z,99948.31
2023-01-13T07:36:29.303Z,99937.03
2023-01-13T07:38:58.987Z,99936.53
2023-01-13T07:41:44.447Z,99934.88
2023-01-13T07:44:12.431Z,99938.41
2023-01-13T07:46:42.878Z,99948.34
2023-01-13T07:49:10.969Z,99960.41
2023-01-13T07:51:41.267Z,99963.25
2023-01-13T07:54:09.257Z,99951.19
2023-01-13T07:56:37.243Z,99942.13
2023-01-13T07:59:05.182Z,99946.16
2023-01-13T08:01:33.345Z,99952.16
2023-01-13T08:04:01.468Z,99958.91
2023-01-13T08:06:29.471Z,99967.94
2023-01-13T08:08:59.755Z,99980.34
2023-01-13T08:11:29.949Z,99982.31
2023-01-13T08:13:58.464Z,99983.84
2023-01-13T08:16:26.843Z,99992.03
2023-01-13T08:18:54.971Z,99989.34
2023-01-13T08:21:22.896Z,99998.41
2023-01-13T08:23:50.857Z,99998.06
2023-01-13T08:26:20.460Z,99993.34
2023-01-13T08:28:48.416Z,99982.81
2023-01-13T08:31:19.778Z,99970.88
2023-01-13T08:33:47.877Z,99994.72
2023-01-13T08:36:16.287Z,99992.56
2023-01-13T08:38:44.291Z,100001.97
2023-01-13T08:41:15.292Z,100001.63
2023-01-13T08:43:44.657Z,100001.47
2023-01-13T08:46:13.103Z,99979.00
2023-01-13T08:48:41.138Z,99993.44
2023-01-13T08:51:10.878Z,99994.75
2023-01-13T08:53:38.802Z,100020.94
2023-01-13T08:56:11.558Z,100017.25
2023-01-13T08:58:40.668Z,100012.88
2023-01-13T09:01:14.786Z,100018.94
2023-01-13T09:03:42.838Z,100012.34
2023-01-13T09:06:16.966Z,99984.19
2023-01-13T09:08:45.169Z,99975.28
2023-01-13T09:11:37.590Z,99976.63
2023-01-13T09:14:07.508Z,99940.59
2023-01-13T09:16:36.819Z,99948.13
2023-01-13T09:19:10.864Z,99980.16
2023-01-13T09:21:38.908Z,100002.81
2023-01-13T09:24:13.441Z,99990.88
2023-01-13T09:26:41.432Z,99993.38
2023-01-13T09:29:09.503Z,100004.78
2023-01-13T09:31:38.987Z,100003.78
2023-01-13T09:34:30.008Z,100014.34
2023-01-13T09:36:58.021Z,100013.88
2023-01-13T09:39:29.728Z,100012.19
2023-01-13T09:42:22.292Z,99996.72
2023-01-13T09:44:59.275Z,99991.75
2023-01-13T09:47:34.915Z,99982.00
2023-01-13T09:50:23.018Z,99984.06
2023-01-13T09:52:53.701Z,100001.84
2023-01-13T09:55:33.878Z,100003.66
2023-01-13T09:58:08.846Z,100008.31
2023-01-13T10:00:42.117Z,100005.94
2023-01-13T10:03:22.967Z,100006.78
2023-01-13T10:06:00.436Z,100019.81
2023-01-13T10:08:32.962Z,100016.13
2023-01-13T10:11:24.952Z,100009.78
2023-01-13T10:13:59.716Z,100022.19
2023-01-13T10:16:42.223Z,100019.31
2023-01-13T10:19:22.668Z,100003.19
2023-01-13T10:22:33.718Z,100003.91
2023-01-13T10:25:33.082Z,100007.28
2023-01-13T10:28:11.093Z,100009.28
2023-01-13T10:30:49.907Z,100007.78
2023-01-13T10:33:21.562Z,100005.09
2023-01-13T10:35:56.552Z,100005.59
2023-01-13T10:38:31.530Z,99999.03
2023-01-13T10:41:01.890Z,100017.00
2023-01-13T10:43:31.667Z,100016.16
2023-01-13T10:46:04.529Z,100014.97
2023-01-13T10:48:40.520Z,100007.59
2023-01-13T10:51:23.839Z,100013.16
2023-01-13T10:53:56.535Z,100005.75
2023-01-13T10:56:29.364Z,100007.28
2023-01-13T10:59:23.339Z,100007.03
2023-01-13T11:02:13.105Z,100006.34
2023-01-13T11:05:04.850Z,100012.72
2023-01-13T11:07:39.424Z,100010.56
2023-01-13T11:10:23.511Z,100010.75
2023-01-13T11:13:14.603Z,100014.88
2023-01-13T11:15:53.725Z,100009.75
2023-01-13T11:18:36.676Z,100003.41
2023-01-13T11:21:23.270Z,100016.00
2023-01-13T11:24:05.647Z,100005.16
2023-01-13T11:26:44.914Z,100013.38
2023-01-13T11:29:21.718Z,100012.22
2023-01-13T11:31:55.364Z,100006.34
2023-01-13T11:34:33.879Z,100003.00
2023-01-13T11:37:09.766Z,100012.06
2023-01-13T11:39:55.445Z,100003.13
2023-01-13T11:42:31.362Z,100006.47
2023-01-13T11:45:17.704Z,100011.88
2023-01-13T11:47:53.526Z,100011.00
2023-01-13T11:50:34.136Z,100012.66
2023-01-13T11:53:33.327Z,100011.47
2023-01-13T11:56:24.524Z,100014.97
2023-01-13T11:59:28.632Z,100023.38
2023-01-13T12:02:23.283Z,100010.25
2023-01-13T12:05:05.795Z,100011.25
2023-01-13T12:07:45.298Z,100008.72
2023-01-13T12:10:29.909Z,100017.47
2023-01-13T12:13:18.627Z,100011.91
2023-01-13T12:16:08.725Z,100021.53
2023-01-13T12:19:18.827Z,100017.88
2023-01-13T12:22:04.495Z,100011.16
2023-01-13T12:24:42.315Z,100014.44
2023-01-13T12:27:21.965Z,100005.31
2023-01-13T12:29:55.329Z,100020.69
2023-01-13T12:32:35.160Z,100022.50
2023-01-13T12:35:24.486Z,100023.25
2023-01-13T12:38:02.574Z,100014.16
2023-01-13T12:40:48.649Z,100027.41
2023-01-13T12:43:38.035Z,100004.75
2023-01-13T12:46:57.113Z,100026.25
2023-01-13T12:49:29.029Z,100028.50
2023-01-13T12:52:13.919Z,100031.91
2023-01-13T12:55:08.825Z,100035.03
2023-01-13T12:57:39.556Z,100031.06
2023-01-13T13:00:17.064Z,100027.25
2023-01-13T13:03:30.190Z,100019.31
2023-01-13T13:06:14.959Z,100029.78
2023-01-13T13:09:04.400Z,100030.50
2023-01-13T13:12:17.148Z,100041.03
2023-01-13T13:15:19.300Z,100035.81
2023-01-13T13:18:08.631Z,100037.06
2023-01-13T13:21:03.743Z,100041.97
2023-01-13T13:24:02.967Z,100056.44
2023-01-13T13:26:46.745Z,100051.78
2023-01-13T13:29:54.119Z,100053.44
2023-01-13T13:32:56.923Z,100051.22
2023-01-13T13:35:51.885Z,100052.25
2023-01-13T13:39:00.023Z,100060.50
2023-01-13T13:41:46.305Z,100060.44
2023-01-13T13:44:38.746Z,100059.47
2023-01-13T13:47:08.293Z,100063.88
2023-01-13T13:49:41.592Z,100067.19
2023-01-13T13:52:19.817Z,100060.16
2023-01-13T13:54:52.677Z,100059.19
2023-01-13T13:57:28.146Z,100069.47
2023-01-13T14:00:00.213Z,100053.88
2023-01-13T14:02:32.355Z,100065.97
2023-01-13T14:05:20.383Z,100071.00
2023-01-13T14:07:51.423Z,100076.72
2023-01-13T14:10:25.779Z,100075.38
2023-01-13T14:12:53.871Z,100084.44
2023-01-13T14:15:33.227Z,100078.75
2023-01-13T14:18:05.233Z,100079.59
2023-01-13T14:20:36.845Z,100082.97
2023-01-13T14:23:06.717Z,100082.13
2023-01-13T14:25:39.673Z,100066.66
2023-01-13T14:28:28.652Z,100081.44
2023-01-13T14:30:58.230Z,100081.31
2023-01-13T14:33:38.812Z,100081.44
2023-01-13T14:36:20.773Z,100082.97
2023-01-13T14:39:12.483Z,100084.44
2023-01-13T14:41:50.717Z,100094.88
2023-01-13T14:44:27.986Z,100075.19
2023-01-13T14:46:59.939Z,100082.97
2023-01-13T14:49:38.707Z,100089.00
2023-01-13T14:52:16.442Z,100081.13
2023-01-13T14:54:52.722Z,100086.13
2023-01-13T14:57:32.426Z,100090.47
2023-01-13T15:00:19.709Z,100084.13
2023-01-13T15:02:50.893Z,100081.31
2023-01-13T15:05:36.238Z,100092.06
2023-01-13T15:08:20.545Z,100087.84
2023-01-13T15:10:52.724Z,100082.00
2023-01-13T15:13:35.288Z,100087.13
2023-01-13T15:16:07.356Z,100102.16
2023-01-13T15:18:39.952Z,100094.41
2023-01-13T15:21:09.191Z,100093.22
2023-01-13T15:23:39.931Z,100098.13
2023-01-13T15:26:19.874Z,100105.69
2023-01-13T15:28:50.185Z,100105.50
2023-01-13T15:31:18.706Z,100111.06
2023-01-13T15:33:46.776Z,100108.38
2023-01-13T15:36:27.204Z,100107.91
2023-01-13T15:38:55.770Z,100119.84
2023-01-13T15:41:38.027Z,100113.44
2023-01-13T15:44:24.901Z,100111.28
2023-01-13T15:46:53.584Z,100112.28
2023-01-13T15:49:34.583Z,100119.38
2023-01-13T15:52:04.249Z,100114.84
2023-01-13T15:54:32.612Z,100118.38
2023-01-13T15:57:00.676Z,100113.19
2023-01-13T15:59:30.047Z,100111.84
2023-01-13T16:01:58.062Z,100105.63
2023-01-13T16:04:26.071Z,100107.81
2023-01-13T16:06:55.260Z,100118.91
2023-01-13T16:09:24.120Z,100118.91
2023-01-13T16:11:54.093Z,100116.75
2023-01-13T16:14:24.229Z,100112.25
2023-01-13T16:16:55.784Z,100123.31
2023-01-13T16:19:24.161Z,100132.22
2023-01-13T16:21:56.478Z,100130.06
2023-01-13T16:24:25.539Z,100135.44
2023-01-13T16:26:55.575Z,100137.94
2023-01-13T16:29:24.302Z,100157.91
2023-01-13T16:31:55.220Z,100148.72
2023-01-13T16:34:24.444Z,100154.41
2023-01-13T16:36:52.508Z,100162.31
2023-01-13T16:39:22.997Z,100165.00
2023-01-13T16:41:51.959Z,100168.72
2023-01-13T16:44:21.387Z,100167.88
2023-01-13T16:46:51.522Z,100167.53
2023-01-13T16:49:20.917Z,100164.34
2023-01-13T16:51:48.827Z,100174.25
2023-01-13T16:54:16.700Z,100173.75
2023-01-13T16:56:45.188Z,100179.09
2023-01-13T16:59:15.114Z,100185.50
2023-01-13T17:01:45.772Z,100183.13
2023-01-13T17:04:17.399Z,100182.50
2023-01-13T17:06:56.900Z,100183.81
2023-01-13T17:09:28.550Z,100178.09
2023-01-13T17:11:57.701Z,100188.31
2023-01-13T17:14:27.185Z,100193.53
2023-01-13T17:17:00.552Z,100191.88
2023-01-13T17:19:28.719Z,100204.63
2023-01-13T17:21:58.103Z,100209.31
2023-01-13T17:24:28.695Z,100213.88
2023-01-13T17:26:57.450Z,100214.03
2023-01-13T17:29:27.633Z,100217.22
2023-01-13T17:31:56.199Z,100215.38
2023-01-13T17:34:24.228Z,100223.59
2023-01-13T17:36:52.353Z,100220.56
2023-01-13T17:39:25.153Z,100226.97
2023-01-13T17:41:55.836Z,100234.34
2023-01-13T17:44:24.283Z,100236.69
2023-01-13T17:46:52.312Z,100244.72
2023-01-13T17:49:22.009Z,100243.25
2023-01-13T17:51:51.403Z,100236.84
2023-01-13T17:54:21.072Z,100248.25
2023-01-13T17:56:49.159Z,100235.66
2023-01-13T17:59:20.226Z,100232.97
2023-01-13T18:01:50.708Z,100236.19
2023-01-13T18:04:28.708Z,100244.56
2023-01-13T18:06:59.863Z,100237.88
2023-01-13T18:09:36.521Z,100253.47
2023-01-13T18:12:12.668Z,100245.94
2023-01-13T18:14:48.389Z,100249.63
2023-01-13T18:17:36.984Z,100254.16
2023-01-13T18:20:39.402Z,100253.47
2023-01-13T18:23:39.610Z,100261.00
2023-01-13T18:26:55.576Z,100262.00
2023-01-13T18:29:27.739Z,100262.28
2023-01-13T18:32:02.321Z,100263.97
2023-01-13T18:34:46.007Z,100271.06
2023-01-13T18:37:26.608Z,100266.66
2023-01-13T18:39:54.867Z,100267.69
2023-01-13T18:42:45.904Z,100273.56
2023-01-13T18:45:18.315Z,100277.28
2023-01-13T18:47:54.337Z,100286.34
2023-01-13T18:50:31.530Z,100287.69
2023-01-13T18:53:04.684Z,100290.53
2023-01-13T18:55:32.733Z,100293.72
2023-01-13T18:58:02.287Z,100297.91
2023-01-13T19:00:36.321Z,100297.22
2023-01-13T19:05:35.566Z,100302.59
2023-01-13T19:08:03.505Z,100303.28
2023-01-13T19:10:32.501Z,100308.13
2023-01-13T19:13:02.513Z,100309.34
2023-01-13T19:15:31.117Z,100309.66
2023-01-13T19:17:59.231Z,100312.50
2023-01-13T19:20:27.325Z,100308.97
2023-01-13T19:22:55.366Z,100318.88
2023-01-13T19:25:23.349Z,100315.03
2023-01-13T19:27:51.296Z,100315.72
2023-01-13T19:30:21.027Z,100322.06
2023-01-13T19:32:48.792Z,100319.38
2023-01-13T19:35:20.031Z,100321.91
2023-01-13T19:37:47.919Z,100336.00
2023-01-13T19:40:16.743Z,100334.16
2023-01-13T19:43:02.923Z,100335.31
2023-01-13T19:45:35.162Z,100343.03
2023-01-13T19:48:05.319Z,100346.06
2023-01-13T19:50:38.538Z,100349.59
2023-01-13T19:53:07.347Z,100346.91
2023-01-13T19:55:35.435Z,100343.69
2023-01-13T19:58:03.854Z,100358.59
2023-01-13T20:00:33.348Z,100368.78
2023-01-13T20:03:03.477Z,100361.75
2023-01-13T20:05:31.934Z,100364.94
2023-01-13T20:07:59.917Z,100366.78
2023-01-13T20:10:30.349Z,100380.53
2023-01-13T20:12:58.392Z,100372.47
2023-01-13T20:15:26.464Z,100376.09
2023-01-13T20:17:57.295Z,100382.09
2023-01-13T20:20:27.937Z,100384.31
2023-01-13T20:22:55.937Z,100387.69
2023-01-13T20:25:24.163Z,100394.19
2023-01-13T20:27:52.863Z,100401.09
2023-01-13T20:30:21.074Z,100402.94
2023-01-13T20:32:49.248Z,100394.75
2023-01-13T20:35:18.855Z,100398.31
2023-01-13T20:37:46.860Z,100405.63
2023-01-13T20:40:17.875Z,100403.47
2023-01-13T20:42:45.291Z,100402.09
2023-01-13T20:45:20.721Z,100403.25
2023-01-13T20:47:49.177Z,100409.78
2023-01-13T20:50:18.874Z,100405.44
2023-01-13T20:52:47.335Z,100409.78
2023-01-13T20:55:15.898Z,100411.78
2023-01-13T20:57:48.749Z,100413.16
2023-01-13T21:00:18.203Z,100416.50
2023-01-13T21:02:46.284Z,100419.16
2023-01-13T21:05:14.309Z,100418.84
2023-01-13T21:07:43.639Z,100420.34
2023-01-13T21:10:12.364Z,100421.97
2023-01-13T21:12:54.272Z,100425.69
2023-01-13T21:15:22.861Z,100433.03
2023-01-13T21:18:10.506Z,100440.22
2023-01-13T21:20:40.117Z,100439.94
2023-01-13T21:23:10.830Z,100447.13
2023-01-13T21:25:40.059Z,100440.41
2023-01-13T21:28:11.201Z,100448.94
2023-01-13T21:30:39.999Z,100446.88
2023-01-13T21:33:08.120Z,100449.41
2023-01-13T21:35:39.923Z,100442.19
2023-01-13T21:38:11.319Z,100461.44
2023-01-13T21:40:39.271Z,100455.38
2023-01-13T21:43:24.019Z,100453.19
2023-01-13T21:46:09.542Z,100455.34
2023-01-13T21:48:37.587Z,100451.34
2023-01-13T21:51:05.845Z,100452.88
2023-01-13T21:53:35.224Z,100458.59
2023-01-13T21:56:03.539Z,100459.28
2023-01-13T21:58:31.584Z,100462.81
2023-01-13T22:01:03.814Z,100469.63
2023-01-13T22:03:54.587Z,100458.91
2023-01-13T22:06:22.970Z,100472.81
2023-01-13T22:08:53.874Z,100463.53
2023-01-13T22:11:21.940Z,100473.09
2023-01-13T22:14:09.298Z,100469.44
2023-01-13T22:16:41.572Z,100464.69
2023-01-13T22:19:12.444Z,100472.94
2023-01-13T22:21:40.708Z,100473.09
2023-01-13T22:24:10.902Z,100471.59
2023-01-13T22:26:39.206Z,100471.75
2023-01-13T22:29:07.191Z,100480.91
2023-01-13T22:31:38.943Z,100490.66
2023-01-13T22:34:06.962Z,100493.88
2023-01-13T22:36:34.911Z,100499.38
2023-01-13T22:39:02.911Z,100505.97
2023-01-13T22:41:32.305Z,100507.19
2023-01-13T22:44:00.259Z,100517.06
2023-01-13T22:46:28.184Z,100509.50
2023-01-13T22:48:56.136Z,100512.19
2023-01-13T22:51:24.247Z,100509.50
2023-01-13T22:53:52.214Z,100516.25
2023-01-13T22:56:25.073Z,100521.50
2023-01-13T22:58:56.718Z,100532.09
2023-01-13T23:01:27.561Z,100530.09
2023-01-13T23:03:55.834Z,100526.66
2023-01-13T23:06:26.816Z,100529.66
2023-01-13T23:08:55.571Z,100541.34
2023-01-13T23:11:29.458Z,100544.19
2023-01-13T23:14:04.820Z,100546.72
2023-01-13T23:16:36.613Z,100539.31
2023-01-13T23:19:06.036Z,100545.09
2023-01-13T23:21:37.329Z,100551.00
2023-01-13T23:24:07.416Z,100552.34
2023-01-13T23:26:37.582Z,100553.16
2023-01-13T23:29:09.584Z,100553.00
2023-01-13T23:31:37.589Z,100561.72
2023-01-13T23:34:05.647Z,100556.00
2023-01-13T23:36:36.797Z,100555.56
2023-01-13T23:39:05.076Z,100558.22
2023-01-13T23:41:33.007Z,100564.56
2023-01-13T23:44:02.175Z,100561.66
2023-01-13T23:46:33.779Z,100562.81
2023-01-13T23:49:03.477Z,100568.31
2023-01-13T23:51:31.736Z,100562.97
2023-01-13T23:54:01.449Z,100560.28
2023-01-13T23:56:32.371Z,100569.81
2023-01-13T23:59:04.419Z,100567.72
